createdAt,value
2019-05-29T00:00:38.938Z,0.00
2019-05-29T00:01:38.890Z,0.00
2019-05-29T00:02:38.848Z,0.00
2019-05-29T00:03:38.818Z,0.00
2019-05-29T00:04:38.774Z,0.00
2019-05-29T00:05:38.730Z,0.00
2019-05-29T00:06:38.709Z,0.00
2019-05-29T00:07:38.654Z,0.00
2019-05-29T00:08:38.622Z,0.00
2019-05-29T00:09:38.580Z,0.00
2019-05-29T00:10:38.534Z,0.00
2019-05-29T00:11:38.498Z,0.00
2019-05-29T00:12:38.462Z,0.00
2019-05-29T00:13:38.429Z,0.00
2019-05-29T00:14:38.384Z,0.00
2019-05-29T00:15:38.341Z,0.00
2019-05-29T00:16:38.303Z,0.00
2019-05-29T00:17:38.262Z,0.00
2019-05-29T00:18:38.230Z,0.00
2019-05-29T00:19:38.188Z,0.00
2019-05-29T00:20:38.149Z,0.00
2019-05-29T00:21:38.115Z,0.00
2019-05-29T00:22:38.078Z,0.00
2019-05-29T00:23:38.029Z,0.00
2019-05-29T00:24:37.992Z,0.00
2019-05-29T00:25:37.959Z,0.00
2019-05-29T00:26:37.938Z,0.00
2019-05-29T00:27:37.877Z,0.00
2019-05-29T00:28:37.838Z,0.00
2019-05-29T00:29:37.795Z,0.00
2019-05-29T00:30:37.761Z,0.00
2019-05-29T00:31:37.723Z,0.00
2019-05-29T00:32:37.947Z,0.00
2019-05-29T00:33:37.642Z,0.00
2019-05-29T00:34:37.603Z,0.00
2019-05-29T00:35:37.567Z,0.00
2019-05-29T00:36:37.529Z,0.00
2019-05-29T00:37:37.517Z,0.00
2019-05-29T00:38:37.451Z,0.00
2019-05-29T00:39:37.411Z,0.00
2019-05-29T00:40:37.369Z,0.00
2019-05-29T00:41:37.334Z,0.00
2019-05-29T00:42:37.289Z,0.00
2019-05-29T00:43:37.259Z,0.00
2019-05-29T00:44:37.213Z,0.00
2019-05-29T00:45:37.180Z,0.00
2019-05-29T00:46:37.131Z,0.00
2019-05-29T00:47:37.094Z,0.00
2019-05-29T00:48:37.056Z,0.00
2019-05-29T00:49:37.018Z,0.00
2019-05-29T00:50:36.981Z,0.00
2019-05-29T00:51:36.942Z,0.00
2019-05-29T00:52:36.905Z,0.00
2019-05-29T00:53:36.863Z,0.00
2019-05-29T00:54:36.828Z,0.00
2019-05-29T00:55:36.780Z,0.00
2019-05-29T00:56:36.751Z,0.00
2019-05-29T00:57:36.710Z,0.00
2019-05-29T00:58:36.695Z,0.00
2019-05-29T00:59:36.626Z,0.00
2019-05-29T01:00:36.593Z,0.00
2019-05-29T01:01:36.550Z,0.00
2019-05-29T01:02:36.511Z,0.00
2019-05-29T01:03:36.472Z,0.00
2019-05-29T01:04:36.439Z,0.00
2019-05-29T01:05:36.394Z,0.00
2019-05-29T01:06:36.356Z,0.00
2019-05-29T01:07:36.313Z,0.00
2019-05-29T01:08:36.281Z,0.00
2019-05-29T01:09:36.231Z,0.00
2019-05-29T01:10:36.198Z,0.00
2019-05-29T01:11:36.155Z,0.00
2019-05-29T01:12:36.120Z,0.00
2019-05-29T01:13:36.093Z,0.00
2019-05-29T01:14:49.272Z,0.00
2019-05-29T01:15:36.007Z,0.00
2019-05-29T01:16:35.961Z,0.00
2019-05-29T01:17:35.929Z,0.00
2019-05-29T01:18:35.893Z,0.00
2019-05-29T01:19:35.845Z,0.00
2019-05-29T01:20:35.817Z,0.00
2019-05-29T01:21:35.764Z,0.00
2019-05-29T01:22:35.729Z,0.00
2019-05-29T01:23:35.689Z,0.00
2019-05-29T01:24:35.651Z,0.00
2019-05-29T01:25:35.614Z,0.00
2019-05-29T01:26:35.573Z,0.00
2019-05-29T01:27:35.531Z,0.00
2019-05-29T01:28:35.497Z,0.00
2019-05-29T01:29:35.477Z,0.00
2019-05-29T01:30:35.461Z,0.00
2019-05-29T01:31:35.381Z,0.00
2019-05-29T01:32:35.347Z,0.00
2019-05-29T01:33:35.317Z,0.00
2019-05-29T01:34:35.261Z,0.00
2019-05-29T01:35:35.237Z,0.00
2019-05-29T01:36:35.178Z,0.00
2019-05-29T01:37:35.144Z,0.00
2019-05-29T01:38:35.107Z,0.00
2019-05-29T01:39:35.060Z,0.00
2019-05-29T01:40:35.021Z,0.00
2019-05-29T01:41:34.980Z,0.00
2019-05-29T01:42:34.963Z,0.00
2019-05-29T01:43:34.918Z,0.00
2019-05-29T01:44:34.867Z,0.00
2019-05-29T01:45:34.830Z,0.00
2019-05-29T01:46:34.785Z,0.00
2019-05-29T01:47:34.750Z,0.00
2019-05-29T01:48:34.712Z,0.00
2019-05-29T01:49:34.693Z,0.00
2019-05-29T01:50:34.632Z,0.00
2019-05-29T01:51:34.592Z,0.00
2019-05-29T01:52:34.553Z,0.00
2019-05-29T01:53:34.535Z,0.00
2019-05-29T01:54:34.478Z,0.00
2019-05-29T01:55:34.438Z,0.00
2019-05-29T01:56:34.401Z,0.00
2019-05-29T01:57:34.364Z,0.00
2019-05-29T01:58:34.317Z,0.00
2019-05-29T01:59:34.283Z,0.00
2019-05-29T02:00:34.243Z,0.00
2019-05-29T02:01:34.204Z,0.00
2019-05-29T02:02:34.171Z,0.00
2019-05-29T02:03:34.148Z,0.00
2019-05-29T02:04:34.088Z,0.00
2019-05-29T02:05:34.049Z,0.00
2019-05-29T02:06:34.007Z,0.00
2019-05-29T02:07:33.967Z,0.00
2019-05-29T02:08:33.926Z,0.00
2019-05-29T02:09:33.896Z,0.00
2019-05-29T02:10:33.847Z,0.00
2019-05-29T02:11:33.811Z,0.00
2019-05-29T02:12:33.778Z,0.00
2019-05-29T02:13:33.733Z,0.00
2019-05-29T02:14:33.709Z,0.00
2019-05-29T02:15:34.395Z,0.00
2019-05-29T02:16:34.276Z,0.00
2019-05-29T02:17:35.151Z,0.00
2019-05-29T02:18:34.277Z,0.00
2019-05-29T02:19:34.210Z,0.00
2019-05-29T02:20:34.472Z,0.00
2019-05-29T02:21:33.991Z,0.00
2019-05-29T02:22:35.262Z,0.00
2019-05-29T02:23:40.192Z,0.00
2019-05-29T02:24:34.481Z,0.00
2019-05-29T02:25:37.547Z,0.00
2019-05-29T02:26:34.092Z,0.00
2019-05-29T02:27:34.235Z,0.00
2019-05-29T02:28:33.993Z,0.00
2019-05-29T02:29:35.705Z,0.00
2019-05-29T02:30:34.093Z,0.00
2019-05-29T02:31:34.185Z,0.00
2019-05-29T02:32:33.493Z,0.00
2019-05-29T02:33:34.277Z,0.00
2019-05-29T02:34:35.715Z,0.00
2019-05-29T02:35:33.460Z,0.00
2019-05-29T02:36:34.967Z,0.00
2019-05-29T02:37:33.308Z,0.00
2019-05-29T02:38:33.458Z,0.00
2019-05-29T02:39:33.570Z,0.00
2019-05-29T02:40:33.367Z,0.00
2019-05-29T02:41:32.851Z,0.00
2019-05-29T02:42:35.105Z,0.00
2019-05-29T02:43:41.225Z,0.00
2019-05-29T02:45:53.176Z,0.00
2019-05-29T02:46:36.898Z,0.00
2019-05-29T02:47:36.861Z,0.00
2019-05-29T02:48:36.819Z,0.00
2019-05-29T02:49:36.776Z,0.00
2019-05-29T02:50:36.744Z,0.00
2019-05-29T02:51:36.723Z,0.00
2019-05-29T02:52:36.665Z,0.00
2019-05-29T02:53:36.626Z,4.00
2019-05-29T02:54:36.582Z,4.00
2019-05-29T02:55:36.550Z,0.00
2019-05-29T02:56:36.506Z,4.00
2019-05-29T02:57:36.463Z,4.00
2019-05-29T02:58:36.431Z,0.00
2019-05-29T02:59:36.401Z,4.00
2019-05-29T03:00:36.345Z,8.00
2019-05-29T03:01:36.304Z,4.00
2019-05-29T03:02:36.288Z,4.00
2019-05-29T03:03:39.639Z,8.00
2019-05-29T03:04:36.207Z,8.00
2019-05-29T03:05:36.153Z,8.00
2019-05-29T03:06:36.110Z,8.00
2019-05-29T03:07:36.074Z,12.00
2019-05-29T03:08:36.036Z,12.00
2019-05-29T03:09:35.993Z,16.00
2019-05-29T03:10:35.961Z,16.00
2019-05-29T03:11:35.913Z,20.00
2019-05-29T03:12:35.874Z,24.00
2019-05-29T03:13:35.838Z,28.00
2019-05-29T03:14:35.791Z,28.00
2019-05-29T03:15:35.753Z,32.00
2019-05-29T03:16:35.721Z,36.00
2019-05-29T03:17:35.695Z,40.00
2019-05-29T03:18:35.637Z,44.00
2019-05-29T03:19:35.594Z,48.00
2019-05-29T03:20:35.566Z,52.00
2019-05-29T03:21:35.515Z,60.00
2019-05-29T03:22:35.496Z,60.00
2019-05-29T03:36:02.188Z,184.00
2019-05-29T03:37:02.096Z,196.00
2019-05-29T03:38:02.052Z,212.00
2019-05-29T03:39:02.010Z,224.00
2019-05-29T03:40:01.975Z,236.00
2019-05-29T03:41:01.933Z,252.00
2019-05-29T03:42:01.889Z,268.00
2019-05-29T03:43:01.845Z,288.00
2019-05-29T03:44:01.797Z,300.00
2019-05-29T03:45:01.756Z,316.00
2019-05-29T03:46:01.721Z,336.00
2019-05-29T03:47:01.701Z,352.00
2019-05-29T03:48:01.631Z,368.00
2019-05-29T03:49:01.596Z,388.00
2019-05-29T03:50:01.567Z,408.00
2019-05-29T03:51:01.516Z,428.00
2019-05-29T03:52:01.481Z,448.00
2019-05-29T03:53:01.437Z,464.00
2019-05-29T03:54:01.395Z,488.00
2019-05-29T03:55:01.358Z,504.00
2019-05-29T03:56:01.311Z,528.00
2019-05-29T03:57:01.273Z,540.00
2019-05-29T03:58:01.231Z,564.00
2019-05-29T03:59:01.205Z,584.00
2019-05-29T04:00:01.167Z,604.00
2019-05-29T04:01:01.111Z,624.00
2019-05-29T04:02:01.072Z,648.00
2019-05-29T04:03:01.033Z,668.00
2019-05-29T04:04:00.998Z,688.00
2019-05-29T04:05:00.954Z,708.00
2019-05-29T04:06:00.916Z,724.00
2019-05-29T04:07:00.890Z,744.00
2019-05-29T04:08:00.830Z,760.00
2019-05-29T04:09:00.794Z,776.00
2019-05-29T04:10:00.753Z,796.00
2019-05-29T04:11:00.713Z,808.00
2019-05-29T04:12:00.675Z,816.00
2019-05-29T04:13:00.635Z,828.00
2019-05-29T04:14:00.595Z,840.00
2019-05-29T04:15:00.564Z,856.00
2019-05-29T04:16:00.513Z,876.00
2019-05-29T04:17:00.699Z,896.00
2019-05-29T04:18:00.438Z,916.00
2019-05-29T04:19:00.403Z,936.00
2019-05-29T04:20:00.358Z,952.00
2019-05-29T04:21:00.316Z,964.00
2019-05-29T04:22:00.279Z,980.00
2019-05-29T04:23:00.238Z,996.00
2019-05-29T04:24:00.204Z,1012.00
2019-05-29T04:25:00.171Z,1028.00
2019-05-29T04:26:00.121Z,1044.00
2019-05-29T04:27:00.084Z,1064.00
2019-05-29T04:28:00.036Z,1088.00
2019-05-29T04:29:00.002Z,1116.00
2019-05-29T04:29:59.964Z,1148.00
2019-05-29T04:30:59.921Z,1200.00
2019-05-29T04:31:59.885Z,1236.00
2019-05-29T04:32:59.844Z,1276.00
2019-05-29T04:33:59.803Z,1268.00
2019-05-29T04:34:59.761Z,1296.00
2019-05-29T04:35:59.727Z,1340.00
2019-05-29T04:36:59.686Z,1344.00
2019-05-29T04:37:59.647Z,1376.00
2019-05-29T04:38:59.611Z,1384.00
2019-05-29T04:39:59.566Z,1404.00
2019-05-29T04:40:59.530Z,1408.00
2019-05-29T04:41:59.489Z,1412.00
2019-05-29T04:42:59.447Z,1424.00
2019-05-29T04:43:59.419Z,1428.00
2019-05-29T04:44:59.370Z,1424.00
2019-05-29T04:45:59.333Z,1408.00
2019-05-29T04:47:10.361Z,1372.00
2019-05-29T04:47:59.251Z,1356.00
2019-05-29T04:48:59.215Z,1372.00
2019-05-29T04:49:59.179Z,1436.00
2019-05-29T04:50:59.137Z,1468.00
2019-05-29T04:51:59.092Z,1564.00
2019-05-29T04:52:59.059Z,1564.00
2019-05-29T04:53:59.017Z,1596.00
2019-05-29T04:54:58.977Z,1668.00
2019-05-29T04:55:58.941Z,1736.00
2019-05-29T04:56:58.899Z,1768.00
2019-05-29T04:57:58.861Z,1788.00
2019-05-29T04:58:58.823Z,1808.00
2019-05-29T04:59:58.780Z,1820.00
2019-05-29T05:00:59.633Z,1740.00
2019-05-29T05:01:58.703Z,1740.00
2019-05-29T05:02:58.662Z,1804.00
2019-05-29T05:03:58.628Z,1776.00
2019-05-29T05:04:58.588Z,1752.00
2019-05-29T05:05:58.546Z,1708.00
2019-05-29T05:06:58.505Z,1664.00
2019-05-29T05:07:58.471Z,1648.00
2019-05-29T05:08:58.434Z,1644.00
2019-05-29T05:09:58.393Z,1648.00
2019-05-29T05:10:58.361Z,1672.00
2019-05-29T05:11:58.316Z,1728.00
2019-05-29T05:12:58.274Z,1772.00
2019-05-29T05:14:01.311Z,1804.00
2019-05-29T05:14:58.230Z,1832.00
2019-05-29T05:15:58.159Z,1868.00
2019-05-29T05:16:58.122Z,1916.00
2019-05-29T05:17:58.085Z,1980.00
2019-05-29T05:18:58.044Z,2064.00
2019-05-29T05:19:58.001Z,2168.00
2019-05-29T05:20:57.961Z,2304.00
2019-05-29T05:21:57.925Z,2444.00
2019-05-29T05:22:57.888Z,2532.00
2019-05-29T05:23:57.845Z,2644.00
2019-05-29T05:24:57.815Z,3040.00
2019-05-29T05:25:57.771Z,3020.00
2019-05-29T05:26:57.729Z,2800.00
2019-05-29T05:27:57.693Z,2832.00
2019-05-29T05:28:57.654Z,3376.00
2019-05-29T05:29:57.614Z,3768.00
2019-05-29T05:30:57.580Z,4140.00
2019-05-29T05:31:57.534Z,4180.00
2019-05-29T05:32:57.497Z,4276.00
2019-05-29T05:33:57.458Z,4288.00
2019-05-29T05:34:57.418Z,4340.00
2019-05-29T05:35:57.406Z,4372.00
2019-05-29T05:36:57.343Z,4456.00
2019-05-29T05:37:57.316Z,4548.00
2019-05-29T05:38:57.267Z,4572.00
2019-05-29T05:39:57.232Z,4532.00
2019-05-29T05:40:57.191Z,4572.00
2019-05-29T05:41:57.152Z,4624.00
2019-05-29T05:42:57.115Z,4684.00
2019-05-29T05:43:57.071Z,4768.00
2019-05-29T05:44:57.036Z,4804.00
2019-05-29T05:45:56.999Z,4904.00
2019-05-29T05:46:56.960Z,5080.00
2019-05-29T05:47:57.909Z,5160.00
2019-05-29T05:48:56.886Z,5212.00
2019-05-29T05:49:56.846Z,5360.00
2019-05-29T05:50:56.811Z,5568.00
2019-05-29T05:51:56.769Z,5756.00
2019-05-29T05:52:56.730Z,5816.00
2019-05-29T05:53:56.693Z,5716.00
2019-05-29T05:54:56.662Z,5676.00
2019-05-29T05:55:56.616Z,5624.00
2019-05-29T05:56:56.577Z,5552.00
2019-05-29T05:57:56.540Z,5580.00
2019-05-29T05:58:56.502Z,5584.00
2019-05-29T05:59:56.470Z,5644.00
2019-05-29T06:00:56.428Z,5740.00
2019-05-29T06:01:56.396Z,5804.00
2019-05-29T06:02:56.359Z,5828.00
2019-05-29T06:03:56.317Z,5888.00
2019-05-29T06:04:56.276Z,5884.00
2019-05-29T06:05:56.240Z,5904.00
2019-05-29T06:06:56.200Z,5860.00
2019-05-29T06:07:56.167Z,5796.00
2019-05-29T06:08:56.128Z,5748.00
2019-05-29T06:09:56.134Z,5700.00
2019-05-29T06:10:56.056Z,5732.00
2019-05-29T06:11:56.019Z,5824.00
2019-05-29T06:12:55.985Z,5920.00
2019-05-29T06:13:55.943Z,6020.00
2019-05-29T06:14:55.907Z,6128.00
2019-05-29T06:15:55.864Z,6308.00
2019-05-29T06:16:55.831Z,6504.00
2019-05-29T06:18:16.957Z,6632.00
2019-05-29T06:18:55.752Z,6708.00
2019-05-29T06:19:55.723Z,6732.00
2019-05-29T06:20:55.687Z,6764.00
2019-05-29T06:21:55.643Z,6824.00
2019-05-29T06:22:55.613Z,6852.00
2019-05-29T06:23:55.566Z,6948.00
2019-05-29T06:24:55.546Z,6940.00
2019-05-29T06:25:55.495Z,6940.00
2019-05-29T06:26:55.468Z,6896.00
2019-05-29T06:27:55.418Z,6876.00
2019-05-29T06:28:55.382Z,6848.00
2019-05-29T06:29:55.345Z,6840.00
2019-05-29T06:30:55.309Z,6936.00
2019-05-29T06:31:55.279Z,6924.00
2019-05-29T06:32:55.239Z,6892.00
2019-05-29T06:33:55.202Z,6880.00
2019-05-29T06:34:55.169Z,6828.00
2019-05-29T06:35:55.124Z,6820.00
2019-05-29T06:36:55.089Z,6940.00
2019-05-29T06:37:55.052Z,7068.00
2019-05-29T06:38:55.015Z,7096.00
2019-05-29T06:39:54.987Z,7164.00
2019-05-29T06:40:54.967Z,7236.00
2019-05-29T06:41:54.907Z,7072.00
2019-05-29T06:42:54.867Z,7204.00
2019-05-29T06:43:54.835Z,7268.00
2019-05-29T06:44:54.799Z,7176.00
2019-05-29T06:45:54.763Z,7292.00
2019-05-29T06:46:54.724Z,7200.00
2019-05-29T06:47:54.685Z,7408.00
2019-05-29T06:49:00.340Z,7280.00
2019-05-29T06:49:54.612Z,7208.00
2019-05-29T06:50:57.329Z,7420.00
2019-05-29T06:51:54.549Z,7312.00
2019-05-29T06:52:54.505Z,7036.00
2019-05-29T06:53:54.467Z,7252.00
2019-05-29T06:54:54.436Z,7128.00
2019-05-29T06:55:55.690Z,6812.00
2019-05-29T06:56:54.358Z,6452.00
2019-05-29T06:57:54.325Z,6316.00
2019-05-29T06:58:54.287Z,6272.00
2019-05-29T06:59:54.245Z,6124.00
2019-05-29T07:00:54.215Z,5920.00
2019-05-29T07:01:54.175Z,5720.00
2019-05-29T07:02:54.148Z,5608.00
2019-05-29T07:04:10.544Z,5488.00
2019-05-29T07:04:54.067Z,5444.00
2019-05-29T07:05:54.035Z,5360.00
2019-05-29T07:06:53.999Z,5324.00
2019-05-29T07:07:53.957Z,5328.00
2019-05-29T07:08:53.922Z,5312.00
2019-05-29T07:09:53.886Z,5384.00
2019-05-29T07:10:53.889Z,5416.00
2019-05-29T07:11:53.823Z,5488.00
2019-05-29T07:12:53.778Z,5604.00
2019-05-29T07:13:53.741Z,5768.00
2019-05-29T07:14:53.708Z,5964.00
2019-05-29T07:15:53.672Z,6104.00
2019-05-29T07:16:56.280Z,6164.00
2019-05-29T07:17:53.602Z,6428.00
2019-05-29T07:19:23.961Z,6616.00
2019-05-29T07:20:02.963Z,6768.00
2019-05-29T07:20:53.487Z,7060.00
2019-05-29T07:21:53.450Z,7148.00
2019-05-29T07:22:53.417Z,7200.00
2019-05-29T07:23:53.382Z,7092.00
2019-05-29T07:24:53.357Z,7012.00
2019-05-29T07:25:53.316Z,6832.00
2019-05-29T07:26:53.275Z,6768.00
2019-05-29T07:27:53.238Z,6960.00
2019-05-29T07:29:07.679Z,6872.00
2019-05-29T07:29:53.170Z,6880.00
2019-05-29T07:31:00.515Z,6956.00
2019-05-29T07:31:53.091Z,6920.00
2019-05-29T07:32:58.747Z,6884.00
2019-05-29T07:33:53.018Z,6996.00
2019-05-29T07:35:03.112Z,7204.00
2019-05-29T07:35:52.948Z,7316.00
2019-05-29T07:36:52.925Z,7280.00
2019-05-29T07:37:52.881Z,7156.00
2019-05-29T07:39:02.582Z,6872.00
2019-05-29T07:39:52.811Z,6764.00
2019-05-29T07:40:52.767Z,6768.00
2019-05-29T07:41:52.730Z,6712.00
2019-05-29T07:42:56.454Z,6772.00
2019-05-29T07:43:52.667Z,6840.00
2019-05-29T07:44:52.629Z,6920.00
2019-05-29T07:45:52.590Z,6916.00
2019-05-29T07:46:52.559Z,6904.00
2019-05-29T07:47:52.525Z,6844.00
2019-05-29T07:48:52.486Z,6780.00
2019-05-29T07:49:52.453Z,6812.00
2019-05-29T07:51:06.373Z,6904.00
2019-05-29T07:51:52.376Z,6900.00
2019-05-29T07:52:52.434Z,6856.00
2019-05-29T07:53:52.302Z,6764.00
2019-05-29T07:54:52.317Z,6636.00
2019-05-29T07:55:52.233Z,6416.00
2019-05-29T07:56:52.200Z,6200.00
2019-05-29T07:57:52.164Z,6184.00
2019-05-29T07:59:01.638Z,6120.00
2019-05-29T07:59:52.092Z,5852.00
2019-05-29T08:01:09.647Z,5744.00
2019-05-29T08:01:52.025Z,5552.00
2019-05-29T08:02:51.989Z,3832.00
2019-05-29T08:03:51.948Z,3764.00
2019-05-29T08:04:51.909Z,5436.00
2019-05-29T08:05:53.353Z,5332.00
2019-05-29T08:06:54.543Z,5244.00
2019-05-29T08:07:51.807Z,5164.00
2019-05-29T08:08:51.779Z,5248.00
2019-05-29T08:09:51.737Z,5208.00
2019-05-29T08:10:51.700Z,5220.00
2019-05-29T08:11:51.665Z,5256.00
2019-05-29T08:12:55.562Z,5224.00
2019-05-29T08:13:51.593Z,5260.00
2019-05-29T08:14:51.561Z,5224.00
2019-05-29T08:16:01.972Z,5100.00
2019-05-29T08:16:51.496Z,4888.00
2019-05-29T08:17:51.452Z,4372.00
2019-05-29T08:18:52.885Z,4796.00
2019-05-29T08:20:02.916Z,4656.00
2019-05-29T08:20:51.356Z,4640.00
2019-05-29T08:21:51.314Z,5080.00
2019-05-29T08:22:51.393Z,5120.00
2019-05-29T08:23:51.236Z,5336.00
2019-05-29T08:24:51.214Z,5384.00
2019-05-29T08:25:51.867Z,5212.00
2019-05-29T08:26:51.168Z,4780.00
2019-05-29T08:27:51.097Z,4240.00
2019-05-29T08:28:51.270Z,4032.00
2019-05-29T08:29:51.209Z,3360.00
2019-05-29T08:30:55.756Z,3152.00
2019-05-29T08:31:51.047Z,4740.00
2019-05-29T08:32:51.302Z,4736.00
2019-05-29T08:33:51.294Z,4760.00
2019-05-29T08:34:51.259Z,4852.00
2019-05-29T08:35:59.305Z,4836.00
2019-05-29T08:37:06.005Z,4828.00
2019-05-29T08:37:51.189Z,4832.00
2019-05-29T08:38:51.712Z,4824.00
2019-05-29T08:39:51.591Z,4800.00
2019-05-29T08:40:51.497Z,4816.00
2019-05-29T08:42:19.330Z,4884.00
2019-05-29T08:42:51.391Z,4944.00
2019-05-29T08:43:59.183Z,4956.00
2019-05-29T08:45:54.963Z,4912.00
2019-05-29T08:47:09.191Z,4956.00
2019-05-29T08:47:54.841Z,5012.00
2019-05-29T08:48:54.803Z,5008.00
2019-05-29T08:49:54.799Z,4964.00
2019-05-29T08:50:54.733Z,4924.00
2019-05-29T08:52:10.585Z,4752.00
2019-05-29T08:52:54.661Z,4652.00
2019-05-29T08:53:54.917Z,4640.00
2019-05-29T08:54:54.592Z,4604.00
2019-05-29T08:55:54.553Z,4620.00
2019-05-29T08:56:54.523Z,4656.00
2019-05-29T08:57:54.480Z,4640.00
2019-05-29T08:58:54.457Z,4640.00
2019-05-29T08:59:54.431Z,4636.00
2019-05-29T09:00:55.378Z,4612.00
2019-05-29T09:01:55.614Z,4576.00
2019-05-29T09:02:54.306Z,4584.00
2019-05-29T09:03:54.271Z,4604.00
2019-05-29T09:04:54.920Z,4588.00
2019-05-29T09:06:06.886Z,4580.00
2019-05-29T09:06:54.159Z,4592.00
2019-05-29T09:07:54.452Z,4616.00
2019-05-29T09:08:54.870Z,4604.00
2019-05-29T09:09:54.067Z,4600.00
2019-05-29T09:10:54.400Z,4632.00
2019-05-29T09:11:54.107Z,4692.00
2019-05-29T09:13:03.931Z,4716.00
2019-05-29T09:13:53.917Z,4716.00
2019-05-29T09:14:53.881Z,4716.00
2019-05-29T09:15:53.840Z,4692.00
2019-05-29T09:16:53.814Z,4664.00
2019-05-29T09:17:53.777Z,4668.00
2019-05-29T09:18:53.739Z,4716.00
2019-05-29T09:19:53.699Z,4724.00
2019-05-29T09:21:02.589Z,4780.00
2019-05-29T09:21:53.633Z,4800.00
2019-05-29T09:22:53.596Z,4800.00
2019-05-29T09:23:53.565Z,4744.00
2019-05-29T09:24:53.534Z,4748.00
2019-05-29T09:25:53.492Z,4696.00
2019-05-29T09:26:53.459Z,4704.00
2019-05-29T09:27:53.418Z,4736.00
2019-05-29T09:28:53.388Z,4736.00
2019-05-29T09:29:53.348Z,4724.00
2019-05-29T09:30:53.312Z,4700.00
2019-05-29T09:31:53.280Z,4692.00
2019-05-29T09:32:53.402Z,4680.00
2019-05-29T09:33:53.205Z,4692.00
2019-05-29T09:34:53.177Z,4684.00
2019-05-29T09:35:53.139Z,4688.00
2019-05-29T09:49:34.481Z,4588.00
2019-05-29T09:50:49.578Z,4604.00
2019-05-29T09:51:34.365Z,4600.00
2019-05-29T09:52:34.330Z,4584.00
2019-05-29T09:53:34.285Z,4572.00
2019-05-29T09:54:34.337Z,4540.00
2019-05-29T09:55:34.215Z,4528.00
2019-05-29T09:56:34.177Z,4512.00
2019-05-29T09:57:34.140Z,4528.00
2019-05-29T09:58:34.104Z,4548.00
2019-05-29T09:59:34.062Z,4520.00
2019-05-29T10:00:34.024Z,4512.00
2019-05-29T10:01:33.995Z,4512.00
2019-05-29T10:02:33.956Z,4540.00
2019-05-29T10:03:33.917Z,4536.00
2019-05-29T10:04:33.880Z,4544.00
2019-05-29T10:05:33.841Z,4548.00
2019-05-29T10:06:33.808Z,4528.00
2019-05-29T10:07:33.775Z,4184.00
2019-05-29T10:08:33.737Z,4464.00
2019-05-29T10:09:33.711Z,4460.00
2019-05-29T10:10:33.671Z,4484.00
2019-05-29T10:11:33.628Z,4508.00
2019-05-29T10:12:33.640Z,4524.00
2019-05-29T10:13:33.558Z,4516.00
2019-05-29T10:14:33.530Z,4488.00
2019-05-29T10:15:33.487Z,4472.00
2019-05-29T10:16:33.459Z,4440.00
2019-05-29T10:17:33.412Z,4420.00
2019-05-29T10:18:33.380Z,4408.00
2019-05-29T10:19:33.346Z,4400.00
2019-05-29T10:20:33.312Z,4404.00
2019-05-29T10:21:40.082Z,4408.00
2019-05-29T10:22:33.237Z,4400.00
2019-05-29T10:23:33.204Z,4416.00
2019-05-29T10:24:33.169Z,4428.00
2019-05-29T10:25:33.132Z,4432.00
2019-05-29T10:26:33.106Z,4444.00
2019-05-29T10:27:33.063Z,4448.00
2019-05-29T10:28:49.127Z,4432.00
2019-05-29T10:29:32.993Z,4408.00
2019-05-29T10:30:32.958Z,4364.00
2019-05-29T10:31:32.929Z,4344.00
2019-05-29T10:32:32.885Z,4340.00
2019-05-29T10:33:32.855Z,4324.00
2019-05-29T10:34:32.818Z,4308.00
2019-05-29T10:35:32.782Z,4304.00
2019-05-29T10:36:32.747Z,4296.00
2019-05-29T10:37:32.712Z,4316.00
2019-05-29T10:38:32.677Z,4304.00
2019-05-29T10:39:32.645Z,4296.00
2019-05-29T10:40:32.610Z,4272.00
2019-05-29T10:41:32.576Z,4264.00
2019-05-29T10:42:32.556Z,4248.00
2019-05-29T10:43:34.584Z,4260.00
2019-05-29T10:44:32.465Z,4240.00
2019-05-29T10:45:32.431Z,4264.00
2019-05-29T10:46:32.403Z,4284.00
2019-05-29T10:47:32.367Z,4296.00
2019-05-29T10:48:32.354Z,4332.00
2019-05-29T10:49:32.289Z,4348.00
2019-05-29T10:50:32.258Z,4356.00
2019-05-29T10:51:32.230Z,4368.00
2019-05-29T10:52:32.190Z,4344.00
2019-05-29T10:53:32.156Z,4336.00
2019-05-29T10:54:32.118Z,4320.00
2019-05-29T10:55:32.088Z,4280.00
2019-05-29T10:56:32.050Z,4284.00
2019-05-29T10:57:32.012Z,4304.00
2019-05-29T10:58:45.819Z,4340.00
2019-05-29T10:59:31.947Z,4360.00
2019-05-29T11:00:31.915Z,4364.00
2019-05-29T11:01:31.875Z,4360.00
2019-05-29T11:02:31.840Z,4340.00
2019-05-29T11:03:31.807Z,4320.00
2019-05-29T11:04:31.768Z,4292.00
2019-05-29T11:05:31.747Z,4224.00
2019-05-29T11:06:31.708Z,4228.00
2019-05-29T11:07:31.664Z,4224.00
2019-05-29T11:08:31.628Z,4236.00
2019-05-29T11:09:43.851Z,4232.00
2019-05-29T11:10:31.560Z,4240.00
2019-05-29T11:11:31.528Z,4252.00
2019-05-29T11:12:31.496Z,4296.00
2019-05-29T11:13:31.461Z,4300.00
2019-05-29T11:14:31.424Z,4292.00
2019-05-29T11:15:31.387Z,4308.00
2019-05-29T11:16:31.351Z,4240.00
2019-05-29T11:17:31.316Z,4264.00
2019-05-29T11:18:31.302Z,4300.00
2019-05-29T11:19:31.255Z,4304.00
2019-05-29T11:20:31.221Z,4320.00
2019-05-29T11:21:31.281Z,4312.00
2019-05-29T11:22:31.192Z,4312.00
2019-05-29T11:23:31.114Z,4296.00
2019-05-29T11:24:31.084Z,4276.00
2019-05-29T11:25:31.056Z,4252.00
2019-05-29T11:26:31.011Z,4292.00
2019-05-29T11:27:31.074Z,4316.00
2019-05-29T11:28:30.949Z,4272.00
2019-05-29T11:29:30.957Z,4252.00
2019-05-29T11:30:30.951Z,4284.00
2019-05-29T11:31:30.935Z,4276.00
2019-05-29T11:32:30.807Z,4284.00
2019-05-29T11:33:30.763Z,4280.00
2019-05-29T11:34:30.732Z,4300.00
2019-05-29T11:35:30.702Z,4320.00
2019-05-29T11:36:30.669Z,4304.00
2019-05-29T11:37:30.633Z,4320.00
2019-05-29T11:38:30.593Z,4316.00
2019-05-29T11:39:30.565Z,4272.00
2019-05-29T11:40:30.786Z,4304.00
2019-05-29T11:41:30.496Z,4268.00
2019-05-29T11:42:30.459Z,4300.00
2019-05-29T11:43:30.430Z,4340.00
2019-05-29T11:44:30.405Z,4376.00
2019-05-29T11:45:30.433Z,4392.00
2019-05-29T11:46:30.319Z,4364.00
2019-05-29T11:47:30.302Z,4384.00
2019-05-29T11:48:30.255Z,4348.00
2019-05-29T11:49:30.221Z,4352.00
2019-05-29T11:50:30.186Z,4340.00
2019-05-29T11:51:30.147Z,4328.00
2019-05-29T11:52:42.329Z,4344.00
2019-05-29T11:53:30.087Z,4324.00
2019-05-29T11:54:30.047Z,4344.00
2019-05-29T11:55:30.038Z,4348.00
2019-05-29T11:56:29.974Z,4376.00
2019-05-29T11:57:29.954Z,4444.00
2019-05-29T11:58:31.501Z,4324.00
2019-05-29T11:59:29.888Z,2924.00
2019-05-29T12:00:29.852Z,4300.00
2019-05-29T12:01:46.726Z,4384.00
2019-05-29T12:02:29.773Z,3132.00
2019-05-29T12:03:29.736Z,4084.00
2019-05-29T12:04:29.698Z,2392.00
2019-05-29T12:05:29.664Z,2408.00
2019-05-29T12:06:29.642Z,2460.00
2019-05-29T12:07:29.603Z,2640.00
2019-05-29T12:08:29.569Z,3912.00
2019-05-29T12:09:33.207Z,4316.00
2019-05-29T12:10:29.495Z,4332.00
2019-05-29T12:11:29.466Z,4348.00
2019-05-29T12:12:29.434Z,4368.00
2019-05-29T12:13:29.397Z,4412.00
2019-05-29T12:14:29.358Z,4404.00
2019-05-29T12:15:29.321Z,4380.00
2019-05-29T12:16:29.286Z,4392.00
2019-05-29T12:17:29.297Z,4428.00
2019-05-29T12:18:29.219Z,4452.00
2019-05-29T12:19:29.191Z,4444.00
2019-05-29T12:20:29.283Z,4452.00
2019-05-29T12:21:29.125Z,4448.00
2019-05-29T12:22:29.085Z,4420.00
2019-05-29T12:23:29.051Z,4432.00
2019-05-29T12:24:29.014Z,4368.00
2019-05-29T12:25:28.983Z,4216.00
2019-05-29T12:26:28.944Z,2548.00
2019-05-29T12:27:28.911Z,4348.00
2019-05-29T12:28:28.885Z,4296.00
2019-05-29T12:29:28.836Z,4252.00
2019-05-29T12:30:28.807Z,4348.00
2019-05-29T12:31:28.810Z,4392.00
2019-05-29T12:32:28.740Z,4428.00
2019-05-29T12:33:28.709Z,4440.00
2019-05-29T12:34:28.668Z,4408.00
2019-05-29T12:35:28.634Z,4384.00
2019-05-29T12:36:28.598Z,4364.00
2019-05-29T12:37:28.566Z,4356.00
2019-05-29T12:38:28.533Z,4356.00
2019-05-29T12:39:28.507Z,4352.00
2019-05-29T12:40:28.468Z,4324.00
2019-05-29T12:41:28.425Z,4312.00
2019-05-29T12:42:28.394Z,4304.00
2019-05-29T12:43:28.426Z,4324.00
2019-05-29T12:44:28.330Z,4360.00
2019-05-29T12:45:28.296Z,4356.00
2019-05-29T12:46:28.258Z,4268.00
2019-05-29T12:47:28.226Z,4332.00
2019-05-29T12:48:28.191Z,4340.00
2019-05-29T12:49:28.152Z,4364.00
2019-05-29T12:50:28.128Z,4380.00
2019-05-29T12:51:28.105Z,4412.00
2019-05-29T12:52:28.055Z,4376.00